createdAt,value
2017-04-07T00:00:08.053Z,24.7
2017-04-07T00:01:08.138Z,24.7
2017-04-07T00:02:09.178Z,24.7
2017-04-07T00:03:08.377Z,24.7
2017-04-07T00:04:09.293Z,24.7
2017-04-07T00:05:08.477Z,24.7
2017-04-07T00:06:08.314Z,24.7
2017-04-07T00:07:08.302Z,24.7
2017-04-07T00:08:08.394Z,24.7
2017-04-07T00:09:08.753Z,24.7
2017-04-07T00:10:09.654Z,24.7
2017-04-07T00:11:08.657Z,24.7
2017-04-07T00:12:09.733Z,24.7
2017-04-07T00:13:09.667Z,24.7
2017-04-07T00:14:09.675Z,24.7
2017-04-07T00:15:10.017Z,24.7
2017-04-07T00:16:09.728Z,24.7
2017-04-07T00:17:09.815Z,24.7
2017-04-07T00:18:08.757Z,24.7
2017-04-07T00:19:09.916Z,24.7
2017-04-07T00:20:09.996Z,24.7
2017-04-07T00:21:09.214Z,24.7
2017-04-07T00:22:09.101Z,24.7
2017-04-07T00:23:09.102Z,24.7
2017-04-07T00:24:10.229Z,24.7
2017-04-07T00:25:10.298Z,24.8
2017-04-07T00:26:10.286Z,24.7
2017-04-07T00:27:09.504Z,24.7
2017-04-07T00:28:10.428Z,24.7
2017-04-07T00:29:09.385Z,24.7
2017-04-07T00:30:09.453Z,24.7
2017-04-07T00:31:09.546Z,24.7
2017-04-07T00:32:09.622Z,24.7
2017-04-07T00:33:11.021Z,24.7
2017-04-07T00:34:09.782Z,24.7
2017-04-07T00:35:10.877Z,24.7
2017-04-07T00:36:09.801Z,24.8
2017-04-07T00:37:09.804Z,24.7
2017-04-07T00:38:09.866Z,24.8
2017-04-07T00:39:10.109Z,24.8
2017-04-07T00:40:10.034Z,24.8
2017-04-07T00:41:10.027Z,24.8
2017-04-07T00:42:11.202Z,24.8
2017-04-07T00:43:11.114Z,24.8
2017-04-07T00:44:10.203Z,24.8
2017-04-07T00:45:10.349Z,24.8
2017-04-07T00:46:10.343Z,24.8
2017-04-07T00:47:11.323Z,24.8
2017-04-07T00:48:10.394Z,24.8
2017-04-07T00:49:11.375Z,24.8
2017-04-07T00:50:10.501Z,24.8
2017-04-07T00:51:10.846Z,24.8
2017-04-07T00:52:10.516Z,24.8
2017-04-07T00:53:10.627Z,24.8
2017-04-07T00:54:11.680Z,24.8
2017-04-07T00:55:11.685Z,24.8
2017-04-07T00:56:11.769Z,24.8
2017-04-07T00:57:12.097Z,24.8
2017-04-07T00:58:10.771Z,24.8
2017-04-07T00:59:11.921Z,24.8
2017-04-07T01:00:11.989Z,24.8
2017-04-07T01:01:11.005Z,24.8
2017-04-07T01:02:12.111Z,24.8
2017-04-07T01:03:12.343Z,24.8
2017-04-07T01:04:12.230Z,24.8
2017-04-07T01:05:12.463Z,24.8
2017-04-07T01:06:12.261Z,24.8
2017-04-07T01:07:11.389Z,24.8
2017-04-07T01:08:12.429Z,24.8
2017-04-07T01:09:12.672Z,24.8
2017-04-07T01:10:11.475Z,24.8
2017-04-07T01:11:11.509Z,24.8
2017-04-07T01:12:12.904Z,24.8
2017-04-07T01:13:11.558Z,24.8
2017-04-07T01:14:11.593Z,24.8
2017-04-07T01:15:12.047Z,24.8
2017-04-07T01:16:12.814Z,24.8
2017-04-07T01:17:11.693Z,24.8
2017-04-07T01:18:11.886Z,24.8
2017-04-07T01:19:11.973Z,24.8
2017-04-07T01:20:11.953Z,24.8
2017-04-07T01:21:12.910Z,24.8
2017-04-07T01:22:13.227Z,24.8
2017-04-07T01:23:12.734Z,24.8
2017-04-07T01:24:12.159Z,24.8
2017-04-07T01:25:13.362Z,24.8
2017-04-07T01:26:12.293Z,24.8
2017-04-07T01:27:12.617Z,24.8
2017-04-07T01:28:13.484Z,24.8
2017-04-07T01:29:13.430Z,24.8
2017-04-07T01:30:13.522Z,24.8
2017-04-07T01:31:13.673Z,24.8
2017-04-07T01:32:12.578Z,24.8
2017-04-07T01:33:12.973Z,24.8
2017-04-07T01:34:12.614Z,24.8
2017-04-07T01:35:13.704Z,24.8
2017-04-07T01:36:12.774Z,24.8
2017-04-07T01:37:12.792Z,24.8
2017-04-07T01:38:12.812Z,24.8
2017-04-07T01:39:13.075Z,24.8
2017-04-07T01:40:13.945Z,24.8
2017-04-07T01:41:13.980Z,24.8
2017-04-07T01:42:13.014Z,24.8
2017-04-07T01:43:14.122Z,24.8
2017-04-07T01:44:14.167Z,24.8
2017-04-07T01:45:13.412Z,24.8
2017-04-07T01:46:13.246Z,24.8
2017-04-07T01:47:14.361Z,24.8
2017-04-07T01:48:13.437Z,24.8
2017-04-07T01:49:14.494Z,24.8
2017-04-07T01:50:13.446Z,24.8
2017-04-07T01:51:13.764Z,24.8
2017-04-07T01:52:14.629Z,24.8
2017-04-07T01:53:13.513Z,24.8
2017-04-07T01:54:14.670Z,24.8
2017-04-07T01:55:14.720Z,24.8
2017-04-07T01:56:13.802Z,24.8
2017-04-07T01:57:14.164Z,24.8
2017-04-07T01:58:14.961Z,24.8
2017-04-07T01:59:15.010Z,24.8
2017-04-07T02:00:15.025Z,24.8
2017-04-07T02:01:15.136Z,24.8
2017-04-07T02:02:15.190Z,24.8
2017-04-07T02:03:15.455Z,24.8
2017-04-07T02:04:14.193Z,24.8
2017-04-07T02:05:15.706Z,24.8
2017-04-07T02:06:15.687Z,24.8
2017-04-07T02:07:14.343Z,24.8
2017-04-07T02:08:14.429Z,24.8
2017-04-07T02:09:14.732Z,24.8
2017-04-07T02:10:15.531Z,24.8
2017-04-07T02:11:14.599Z,24.8
2017-04-07T02:12:14.578Z,24.9
2017-04-07T02:13:14.648Z,24.9
2017-04-07T02:14:14.721Z,24.9
2017-04-07T02:15:15.119Z,24.9
2017-04-07T02:16:14.796Z,24.9
2017-04-07T02:17:16.011Z,24.9
2017-04-07T02:18:14.996Z,24.9
2017-04-07T02:19:14.992Z,24.9
2017-04-07T02:20:16.275Z,24.9
2017-04-07T02:21:16.606Z,24.9
2017-04-07T02:22:15.330Z,24.9
2017-04-07T02:23:15.414Z,24.9
2017-04-07T02:24:15.389Z,24.9
2017-04-07T02:25:16.539Z,24.9
2017-04-07T02:26:15.432Z,24.8
2017-04-07T02:27:17.027Z,24.9
2017-04-07T02:28:15.640Z,24.8
2017-04-07T02:29:16.838Z,24.9
2017-04-07T02:30:15.939Z,24.9
2017-04-07T02:31:16.905Z,24.9
2017-04-07T02:32:15.971Z,24.9
2017-04-07T02:33:17.391Z,24.9
2017-04-07T02:34:17.087Z,24.9
2017-04-07T02:35:16.022Z,24.9
2017-04-07T02:36:17.100Z,24.9
2017-04-07T02:37:16.246Z,24.9
2017-04-07T02:38:16.323Z,24.9
2017-04-07T02:39:17.629Z,24.9
2017-04-07T02:40:17.402Z,24.9
2017-04-07T02:41:17.518Z,24.9
2017-04-07T02:42:17.503Z,24.9
2017-04-07T02:43:16.458Z,24.9
2017-04-07T02:44:16.521Z,24.9
2017-04-07T02:45:16.936Z,24.9
2017-04-07T02:46:16.543Z,24.9
2017-04-07T02:47:17.762Z,24.9
2017-04-07T02:48:16.753Z,24.9
2017-04-07T02:49:17.795Z,24.9
2017-04-07T02:50:17.899Z,24.9
2017-04-07T02:51:17.187Z,24.9
2017-04-07T02:52:16.872Z,24.9
2017-04-07T02:53:18.047Z,24.9
2017-04-07T02:54:18.116Z,24.9
2017-04-07T02:55:18.184Z,24.9
2017-04-07T02:56:18.258Z,24.9
2017-04-07T02:57:17.549Z,24.9
2017-04-07T02:58:18.260Z,24.9
2017-04-07T02:59:17.322Z,24.9
2017-04-07T03:00:18.468Z,24.9
2017-04-07T03:01:18.583Z,24.9
2017-04-07T03:02:18.611Z,24.9
2017-04-07T03:03:18.887Z,24.9
2017-04-07T03:04:18.610Z,24.9
2017-04-07T03:05:17.575Z,24.9
2017-04-07T03:06:19.596Z,24.9
2017-04-07T03:07:19.030Z,24.9
2017-04-07T03:08:18.776Z,24.9
2017-04-07T03:09:19.138Z,24.9
2017-04-07T03:10:18.897Z,24.9
2017-04-07T03:11:17.868Z,24.9
2017-04-07T03:12:19.021Z,24.9
2017-04-07T03:13:17.992Z,24.9
2017-04-07T03:14:18.066Z,24.9
2017-04-07T03:15:19.465Z,24.9
2017-04-07T03:16:19.265Z,24.9
2017-04-07T03:17:19.249Z,24.9
2017-04-07T03:18:18.210Z,24.9
2017-04-07T03:19:18.267Z,24.9
2017-04-07T03:20:18.319Z,24.9
2017-04-07T03:21:18.677Z,24.9
2017-04-07T03:22:19.449Z,24.9
2017-04-07T03:23:18.520Z,24.9
2017-04-07T03:24:19.515Z,24.9
2017-04-07T03:25:19.600Z,24.9
2017-04-07T03:26:19.638Z,24.9
2017-04-07T03:27:20.051Z,24.9
2017-04-07T03:28:18.782Z,24.9
2017-04-07T03:29:18.805Z,24.9
2017-04-07T03:30:18.817Z,24.9
2017-04-07T03:31:20.021Z,24.9
2017-04-07T03:32:19.990Z,24.9
2017-04-07T03:33:19.349Z,24.9
2017-04-07T03:34:20.698Z,24.9
2017-04-07T03:35:19.166Z,24.9
2017-04-07T03:36:19.069Z,24.9
2017-04-07T03:37:19.152Z,24.9
2017-04-07T03:38:20.221Z,24.9
2017-04-07T03:39:20.548Z,24.9
2017-04-07T03:40:20.404Z,24.9
2017-04-07T03:41:20.335Z,24.9
2017-04-07T03:42:19.391Z,24.9
2017-04-07T03:43:20.425Z,24.9
2017-04-07T03:44:19.394Z,24.9
2017-04-07T03:45:20.806Z,24.9
2017-04-07T03:46:20.635Z,24.9
2017-04-07T03:47:20.613Z,24.9
2017-04-07T03:48:20.530Z,24.9
2017-04-07T03:49:20.607Z,24.9
2017-04-07T03:50:20.617Z,24.9
2017-04-07T03:51:19.920Z,24.9
2017-04-07T03:52:19.619Z,24.9
2017-04-07T03:53:20.820Z,24.9
2017-04-07T03:54:19.832Z,24.9
2017-04-07T03:55:21.605Z,24.9
2017-04-07T03:56:20.834Z,24.9
2017-04-07T03:57:21.279Z,24.9
2017-04-07T03:58:19.814Z,24.9
2017-04-07T03:59:20.978Z,24.9
2017-04-07T04:00:19.830Z,24.9
2017-04-07T04:01:20.994Z,24.9
2017-04-07T04:02:21.004Z,24.9
2017-04-07T04:03:21.304Z,24.9
2017-04-07T04:04:21.039Z,24.9
2017-04-07T04:05:21.122Z,24.9
2017-04-07T04:06:21.185Z,24.9
2017-04-07T04:07:20.120Z,24.9
2017-04-07T04:08:20.161Z,24.9
2017-04-07T04:09:21.521Z,24.9
2017-04-07T04:10:20.160Z,24.9
2017-04-07T04:11:20.171Z,24.9
2017-04-07T04:12:21.347Z,24.9
2017-04-07T04:13:20.362Z,24.9
2017-04-07T04:14:21.439Z,24.9
2017-04-07T04:15:21.714Z,24.9
2017-04-07T04:16:20.575Z,24.9
2017-04-07T04:17:20.618Z,24.9
2017-04-07T04:18:20.520Z,24.9
2017-04-07T04:19:20.561Z,25
2017-04-07T04:20:21.680Z,25
2017-04-07T04:21:22.075Z,25
2017-04-07T04:22:20.733Z,25
2017-04-07T04:23:21.380Z,25
2017-04-07T04:24:21.955Z,25
2017-04-07T04:25:20.935Z,25.1
2017-04-07T04:26:22.007Z,25.1
2017-04-07T04:27:22.479Z,25.1
2017-04-07T04:28:22.139Z,25.1
2017-04-07T04:29:21.125Z,25.1
2017-04-07T04:30:21.100Z,25.1
2017-04-07T04:31:21.112Z,25.1
2017-04-07T04:32:21.233Z,25.1
2017-04-07T04:33:21.552Z,25.1
2017-04-07T04:34:22.362Z,25.2
2017-04-07T04:35:21.250Z,25.4
2017-04-07T04:36:22.457Z,25.6
2017-04-07T04:37:21.415Z,25.7
2017-04-07T04:38:21.345Z,26
2017-04-07T04:39:21.483Z,26.2
2017-04-07T04:40:21.511Z,26.4
2017-04-07T04:41:22.645Z,26.6
2017-04-07T04:42:22.600Z,26.7
2017-04-07T04:43:21.661Z,26.9
2017-04-07T04:44:22.717Z,27
2017-04-07T04:45:21.807Z,27.1
2017-04-07T04:46:22.822Z,27.2
2017-04-07T04:47:21.919Z,27.3
2017-04-07T04:48:22.911Z,27.3
2017-04-07T04:49:21.843Z,27.4
2017-04-07T04:50:21.881Z,27.4
2017-04-07T04:51:21.932Z,27.4
2017-04-07T04:52:23.107Z,27.5
2017-04-07T04:53:21.986Z,27.5
2017-04-07T04:54:23.078Z,27.5
2017-04-07T04:55:23.454Z,27.5
2017-04-07T04:56:22.239Z,27.5
2017-04-07T04:57:22.276Z,27.5
2017-04-07T04:58:22.242Z,27.5
2017-04-07T04:59:22.714Z,27.5
2017-04-07T05:00:22.267Z,27.4
2017-04-07T05:01:22.382Z,27.4
2017-04-07T05:02:22.337Z,27.4
2017-04-07T05:03:22.378Z,27.5
2017-04-07T05:04:23.552Z,27.4
2017-04-07T05:05:23.631Z,27.5
2017-04-07T05:06:22.616Z,27.5
2017-04-07T05:07:22.565Z,27.5
2017-04-07T05:08:22.804Z,27.5
2017-04-07T05:09:23.704Z,27.5
2017-04-07T05:10:22.740Z,27.5
2017-04-07T05:11:23.941Z,27.7
2017-04-07T05:12:23.968Z,27.7
2017-04-07T05:13:23.957Z,27.7
2017-04-07T05:14:22.954Z,27.7
2017-04-07T05:15:24.212Z,27.6
2017-04-07T05:16:23.157Z,27.6
2017-04-07T05:17:23.175Z,27.6
2017-04-07T05:18:24.209Z,27.6
2017-04-07T05:19:23.328Z,27.6
2017-04-07T05:20:24.383Z,27.6
2017-04-07T05:21:25.022Z,27.6
2017-04-07T05:22:23.480Z,27.6
2017-04-07T05:23:23.502Z,27.6
2017-04-07T05:24:24.661Z,27.6
2017-04-07T05:25:23.666Z,27.6
2017-04-07T05:26:23.637Z,27.6
2017-04-07T05:27:23.677Z,27.5
2017-04-07T05:28:25.116Z,27.5
2017-04-07T05:29:24.961Z,27.5
2017-04-07T05:30:24.990Z,27.5
2017-04-07T05:31:24.945Z,27.6
2017-04-07T05:32:23.951Z,27.6
2017-04-07T05:33:25.113Z,27.6
2017-04-07T05:34:24.162Z,27.5
2017-04-07T05:35:25.285Z,27.5
2017-04-07T05:36:24.164Z,27.5
2017-04-07T05:37:24.200Z,27.5
2017-04-07T05:38:25.414Z,27.5
2017-04-07T05:39:25.514Z,27.5
2017-04-07T05:40:24.473Z,27.5
2017-04-07T05:41:25.563Z,27.5
2017-04-07T05:42:24.479Z,27.6
2017-04-07T05:43:25.725Z,27.6
2017-04-07T05:44:25.644Z,27.4
2017-04-07T05:45:25.790Z,27.2
2017-04-07T05:46:25.768Z,27.2
2017-04-07T05:47:24.767Z,27.2
2017-04-07T05:48:25.986Z,27.2
2017-04-07T05:49:26.841Z,27.2
2017-04-07T05:50:25.261Z,27.2
2017-04-07T05:51:26.177Z,27.2
2017-04-07T05:52:25.184Z,27.3
2017-04-07T05:53:26.109Z,27.3
2017-04-07T05:54:26.182Z,27.3
2017-04-07T05:55:26.286Z,27.3
2017-04-07T05:56:26.383Z,27.3
2017-04-07T05:57:25.318Z,27.3
2017-04-07T05:58:25.476Z,27.3
2017-04-07T05:59:25.399Z,27.3
2017-04-07T06:00:26.610Z,27.3
2017-04-07T06:01:27.360Z,27.3
2017-04-07T06:02:26.577Z,27.3
2017-04-07T06:03:27.295Z,27.3
2017-04-07T06:04:26.827Z,27.3
2017-04-07T06:05:26.876Z,27.2
2017-04-07T06:06:25.990Z,27.2
2017-04-07T06:07:27.615Z,27.2
2017-04-07T06:08:27.015Z,27.2
2017-04-07T06:09:27.021Z,27.2
2017-04-07T06:10:27.015Z,27.2
2017-04-07T06:11:26.033Z,27.2
2017-04-07T06:12:27.394Z,27.2
2017-04-07T06:13:26.202Z,27.2
2017-04-07T06:14:28.226Z,27.2
2017-04-07T06:15:27.326Z,27.2
2017-04-07T06:16:27.314Z,27.2
2017-04-07T06:17:27.355Z,27.2
2017-04-07T06:18:26.363Z,27.2
2017-04-07T06:19:27.389Z,27.2
2017-04-07T06:20:28.207Z,27.2
2017-04-07T06:21:29.548Z,27.2
2017-04-07T06:22:27.151Z,27.2
2017-04-07T06:23:26.710Z,27.2
2017-04-07T06:24:26.661Z,27.2
2017-04-07T06:25:27.280Z,27.2
2017-04-07T06:26:27.785Z,27.2
2017-04-07T06:27:27.805Z,27.1
2017-04-07T06:28:26.789Z,27.1
2017-04-07T06:29:28.712Z,27.1
2017-04-07T06:30:26.902Z,27.1
2017-04-07T06:31:27.960Z,27.1
2017-04-07T06:32:27.941Z,27.1
2017-04-07T06:33:27.524Z,27.1
2017-04-07T06:34:28.597Z,27.1
2017-04-07T06:35:30.022Z,27.1
2017-04-07T06:36:27.015Z,27.1
2017-04-07T06:37:27.186Z,27.1
2017-04-07T06:38:27.090Z,27.2
2017-04-07T06:39:28.340Z,27.2
2017-04-07T06:40:27.357Z,27.2
2017-04-07T06:41:27.315Z,27.2
2017-04-07T06:42:27.414Z,27.2
2017-04-07T06:43:27.331Z,27.2
2017-04-07T06:44:28.404Z,27.2
2017-04-07T06:45:28.426Z,27.2
2017-04-07T06:46:28.534Z,27.1
2017-04-07T06:47:27.498Z,27.2
2017-04-07T06:48:28.524Z,27.2
2017-04-07T06:49:29.333Z,27.2
2017-04-07T06:50:27.627Z,27.2
2017-04-07T06:51:28.828Z,27.2
2017-04-07T06:52:29.733Z,27.2
2017-04-07T06:53:28.848Z,27.2
2017-04-07T06:54:28.001Z,27.3
2017-04-07T06:55:27.913Z,27.4
2017-04-07T06:56:28.077Z,27.4
2017-04-07T06:57:28.760Z,27.4
2017-04-07T06:58:28.202Z,27.4
2017-04-07T06:59:29.322Z,27.4
2017-04-07T07:00:28.374Z,27.4
2017-04-07T07:01:30.094Z,27.4
2017-04-07T07:02:28.355Z,27.3
2017-04-07T07:03:28.481Z,27.3
2017-04-07T07:04:29.228Z,27.2
2017-04-07T07:05:29.392Z,27.2
2017-04-07T07:06:30.084Z,27.2
2017-04-07T07:07:30.339Z,27.1
2017-04-07T07:08:29.734Z,27.1
2017-04-07T07:09:28.613Z,27.1
2017-04-07T07:10:28.580Z,27.1
2017-04-07T07:11:30.359Z,27.1
2017-04-07T07:12:30.487Z,27
2017-04-07T07:13:28.707Z,27
2017-04-07T07:14:30.309Z,27
2017-04-07T07:15:28.729Z,27
2017-04-07T07:16:28.635Z,27
2017-04-07T07:17:29.742Z,27
2017-04-07T07:18:31.719Z,27
2017-04-07T07:19:29.920Z,27
2017-04-07T07:20:29.468Z,27
2017-04-07T07:21:30.230Z,27
2017-04-07T07:22:30.794Z,27
2017-04-07T07:23:30.800Z,27
2017-04-07T07:24:29.370Z,27
2017-04-07T07:25:30.945Z,27
2017-04-07T07:26:30.067Z,27
2017-04-07T07:27:29.261Z,27
2017-04-07T07:28:30.314Z,27
2017-04-07T07:29:30.760Z,27
2017-04-07T07:30:30.398Z,27
2017-04-07T07:31:32.284Z,27
2017-04-07T07:32:29.448Z,27
2017-04-07T07:33:30.109Z,27
2017-04-07T07:34:31.038Z,27
2017-04-07T07:35:30.559Z,27
2017-04-07T07:36:30.519Z,27
2017-04-07T07:37:30.094Z,27
2017-04-07T07:38:35.327Z,27
2017-04-07T07:39:30.843Z,27
2017-04-07T07:40:31.306Z,27
2017-04-07T07:41:30.457Z,27
2017-04-07T07:42:29.844Z,27
2017-04-07T07:43:30.731Z,27
2017-04-07T07:44:31.666Z,27
2017-04-07T07:45:30.031Z,27
2017-04-07T07:46:30.112Z,27
2017-04-07T07:47:32.454Z,27
2017-04-07T07:48:30.194Z,27
2017-04-07T07:49:31.517Z,27
2017-04-07T07:50:31.448Z,27
2017-04-07T07:51:31.428Z,27
2017-04-07T07:52:31.543Z,27
2017-04-07T07:53:31.113Z,27
2017-04-07T07:54:35.170Z,27
2017-04-07T07:55:31.029Z,27
2017-04-07T07:56:32.220Z,27
2017-04-07T07:57:30.597Z,27
2017-04-07T07:58:30.490Z,27
2017-04-07T07:59:30.597Z,27
2017-04-07T08:00:32.226Z,26.9
2017-04-07T08:01:30.596Z,26.9
2017-04-07T08:02:30.593Z,26.9
2017-04-07T08:03:32.045Z,26.9
2017-04-07T08:04:30.720Z,26.9
2017-04-07T08:05:30.641Z,26.9
2017-04-07T08:06:31.984Z,27
2017-04-07T08:07:31.424Z,27
2017-04-07T08:08:32.402Z,27
2017-04-07T08:09:31.898Z,27
2017-04-07T08:10:31.647Z,27
2017-04-07T08:11:30.967Z,27
2017-04-07T08:12:32.047Z,27
2017-04-07T08:13:31.807Z,27
2017-04-07T08:14:32.159Z,27.1
2017-04-07T08:15:32.380Z,27.1
2017-04-07T08:16:32.341Z,27.1
2017-04-07T08:17:32.443Z,27.1
2017-04-07T08:18:33.007Z,27.1
2017-04-07T08:19:33.013Z,27.1
2017-04-07T08:20:31.381Z,27.1
2017-04-07T08:21:33.383Z,27.1
2017-04-07T08:22:32.722Z,27.1
2017-04-07T08:23:32.140Z,27.1
2017-04-07T08:24:32.764Z,27.1
2017-04-07T08:25:31.647Z,27.1
2017-04-07T08:26:35.421Z,27.1
2017-04-07T08:27:31.833Z,27.1
2017-04-07T08:28:31.875Z,27.1
2017-04-07T08:29:33.036Z,27.1
2017-04-07T08:30:32.088Z,27.1
2017-04-07T08:31:32.189Z,27.1
2017-04-07T08:32:33.958Z,27.1
2017-04-07T08:33:32.125Z,27.1
2017-04-07T08:34:33.966Z,27.1
2017-04-07T08:35:33.461Z,27.1
2017-04-07T08:36:34.414Z,27.1
2017-04-07T08:37:33.356Z,27.1
2017-04-07T08:38:33.940Z,27.1
2017-04-07T08:39:34.011Z,27.1
2017-04-07T08:40:33.236Z,27.1
2017-04-07T08:41:34.160Z,27.1
2017-04-07T08:42:33.625Z,27.1
2017-04-07T08:43:34.218Z,27.2
2017-04-07T08:44:33.613Z,27.2
2017-04-07T08:45:32.652Z,27.2
2017-04-07T08:46:33.800Z,27.2
2017-04-07T08:47:34.435Z,27.2
2017-04-07T08:48:34.359Z,27.2
2017-04-07T08:49:32.887Z,27.2
2017-04-07T08:50:33.865Z,27.2
2017-04-07T08:51:32.920Z,27.2
2017-04-07T08:52:35.321Z,27.2
2017-04-07T08:53:34.672Z,27.2
2017-04-07T08:54:34.098Z,27.2
2017-04-07T08:55:34.712Z,27.2
2017-04-07T08:56:34.219Z,27.2
2017-04-07T08:57:35.323Z,27.2
2017-04-07T08:58:34.357Z,27.2
2017-04-07T08:59:34.354Z,27.2
2017-04-07T09:00:35.110Z,27.2
2017-04-07T09:01:33.421Z,27.2
2017-04-07T09:02:35.022Z,27.2
2017-04-07T09:03:33.476Z,27.2
2017-04-07T09:04:34.514Z,27.2
2017-04-07T09:05:34.032Z,27.2
2017-04-07T09:06:38.719Z,27.2
2017-04-07T09:07:34.760Z,27.2
2017-04-07T09:08:35.334Z,27.2
2017-04-07T09:09:35.415Z,27.2
2017-04-07T09:10:35.721Z,27.2
2017-04-07T09:11:34.451Z,27.2
2017-04-07T09:12:33.924Z,27.2
2017-04-07T09:13:33.737Z,27.2
2017-04-07T09:14:36.853Z,27.2
2017-04-07T09:15:35.680Z,27.2
2017-04-07T09:16:35.217Z,27.2
2017-04-07T09:17:34.710Z,27.2
2017-04-07T09:18:35.164Z,27.2
2017-04-07T09:19:34.919Z,27.2
2017-04-07T09:20:36.511Z,27.3
2017-04-07T09:21:36.073Z,27.3
2017-04-07T09:22:36.119Z,27.3
2017-04-07T09:23:35.995Z,27.2
2017-04-07T09:24:35.547Z,27
2017-04-07T09:25:36.170Z,26.7
2017-04-07T09:26:36.179Z,26.4
2017-04-07T09:27:34.502Z,26.2
2017-04-07T09:28:35.232Z,26
2017-04-07T09:29:36.318Z,25.8
2017-04-07T09:30:36.456Z,25.7
2017-04-07T09:31:34.812Z,25.6
2017-04-07T09:32:37.058Z,25.5
2017-04-07T09:33:34.919Z,25.4
2017-04-07T09:34:37.270Z,25.3
2017-04-07T09:35:36.078Z,25.2
2017-04-07T09:36:36.108Z,25.1
2017-04-07T09:37:37.555Z,25
2017-04-07T09:38:36.882Z,25
2017-04-07T09:39:35.423Z,24.9
2017-04-07T09:40:35.569Z,24.9
2017-04-07T09:41:35.830Z,24.8
2017-04-07T09:42:36.200Z,24.8
2017-04-07T09:43:35.384Z,24.7
2017-04-07T09:44:35.726Z,24.7
2017-04-07T09:45:35.291Z,24.7
2017-04-07T09:46:35.265Z,24.7
2017-04-07T09:47:35.364Z,24.6
2017-04-07T09:48:36.473Z,24.6
2017-04-07T09:49:35.355Z,24.6
2017-04-07T09:50:36.481Z,24.6
2017-04-07T09:51:38.692Z,24.6
2017-04-07T09:52:36.057Z,24.5
2017-04-07T09:53:37.435Z,24.5
2017-04-07T09:54:36.358Z,24.4
2017-04-07T09:55:37.360Z,24.4
2017-04-07T09:56:35.659Z,24.4
2017-04-07T09:57:37.240Z,24.4
2017-04-07T09:58:37.465Z,24.4
2017-04-07T09:59:36.472Z,24.4
2017-04-07T10:00:36.452Z,24.3
2017-04-07T10:01:36.254Z,24.3
2017-04-07T10:02:37.044Z,24.3
2017-04-07T10:03:37.066Z,24.2
2017-04-07T10:04:37.094Z,24.2
2017-04-07T10:05:39.099Z,24.2
2017-04-07T10:06:37.869Z,24.2
2017-04-07T10:07:37.960Z,24.2
2017-04-07T10:08:36.805Z,24.2
2017-04-07T10:09:36.932Z,24.1
2017-04-07T10:10:38.112Z,24.1
2017-04-07T10:11:38.156Z,24.1
2017-04-07T10:12:36.489Z,24
2017-04-07T10:13:37.646Z,24
2017-04-07T10:14:36.638Z,24
2017-04-07T10:15:37.671Z,24
2017-04-07T10:16:36.712Z,24
2017-04-07T10:17:36.759Z,24
2017-04-07T10:18:37.834Z,24
2017-04-07T10:19:37.933Z,24
2017-04-07T10:20:38.997Z,23.9
2017-04-07T10:21:36.862Z,23.9
2017-04-07T10:22:37.922Z,24
2017-04-07T10:23:38.694Z,24
2017-04-07T10:24:38.335Z,24
2017-04-07T10:25:38.095Z,24
2017-04-07T10:26:38.807Z,24.1
2017-04-07T10:27:38.069Z,24.1
2017-04-07T10:28:38.147Z,24.1
2017-04-07T10:29:38.377Z,24.1
2017-04-07T10:30:37.521Z,24.1
2017-04-07T10:31:39.832Z,24.1
2017-04-07T10:32:38.443Z,24.1
2017-04-07T10:33:37.430Z,24.1
2017-04-07T10:34:37.550Z,24.1
2017-04-07T10:35:37.516Z,24.1
2017-04-07T10:36:38.624Z,24
2017-04-07T10:37:38.633Z,24
2017-04-07T10:38:38.546Z,24
2017-04-07T10:39:39.958Z,23.9
2017-04-07T10:40:37.723Z,23.9
2017-04-07T10:41:38.116Z,23.9
2017-04-07T10:42:37.871Z,23.9
2017-04-07T10:43:38.840Z,23.9
2017-04-07T10:44:38.926Z,23.8
2017-04-07T10:45:37.957Z,23.9
2017-04-07T10:46:43.723Z,23.9
2017-04-07T10:47:37.936Z,23.9
2017-04-07T10:48:37.948Z,23.9
2017-04-07T10:49:37.965Z,24
2017-04-07T10:50:39.187Z,24
2017-04-07T10:51:38.203Z,24
2017-04-07T10:52:38.342Z,24
2017-04-07T10:53:39.349Z,24.1
2017-04-07T10:54:38.351Z,24.1
2017-04-07T10:55:38.454Z,24.1
2017-04-07T10:56:39.546Z,24.1
2017-04-07T10:57:39.102Z,24.1
2017-04-07T10:58:39.662Z,24.1
2017-04-07T10:59:38.704Z,24.1
2017-04-07T11:00:39.459Z,24.1
2017-04-07T11:01:38.807Z,24.2
2017-04-07T11:02:38.891Z,24.2
2017-04-07T11:03:39.910Z,24.2
2017-04-07T11:04:40.832Z,24.1
2017-04-07T11:05:40.116Z,24.1
2017-04-07T11:06:40.162Z,24.1
2017-04-07T11:07:40.132Z,24.1
2017-04-07T11:08:40.002Z,24.1
2017-04-07T11:09:39.123Z,24.1
2017-04-07T11:10:40.357Z,24.1
2017-04-07T11:11:40.421Z,24
2017-04-07T11:12:40.395Z,24
2017-04-07T11:13:40.800Z,24
2017-04-07T11:14:40.485Z,24
2017-04-07T11:15:39.469Z,24
2017-04-07T11:16:40.296Z,23.9
2017-04-07T11:17:40.167Z,23.9
2017-04-07T11:18:39.630Z,23.9
2017-04-07T11:19:39.764Z,23.7
2017-04-07T11:20:39.765Z,23.7
2017-04-07T11:21:40.900Z,23.7
2017-04-07T11:22:39.800Z,23.8
2017-04-07T11:23:41.596Z,23.8
2017-04-07T11:24:40.997Z,23.9
2017-04-07T11:25:40.067Z,24
2017-04-07T11:26:39.952Z,24
2017-04-07T11:27:41.107Z,24
2017-04-07T11:28:41.243Z,24.1
2017-04-07T11:29:40.191Z,24.1
2017-04-07T11:30:40.631Z,24.2
2017-04-07T11:31:41.364Z,24.3
2017-04-07T11:32:41.417Z,24.3
2017-04-07T11:33:42.274Z,24.4
2017-04-07T11:34:40.587Z,24.4
2017-04-07T11:35:41.100Z,24.5
2017-04-07T11:36:40.759Z,24.5
2017-04-07T11:37:41.677Z,24.6
2017-04-07T11:38:41.819Z,24.7
2017-04-07T11:39:41.774Z,24.7
2017-04-07T11:40:41.220Z,24.8
2017-04-07T11:41:41.407Z,24.9
2017-04-07T11:42:41.118Z,25
2017-04-07T11:43:40.852Z,25
2017-04-07T11:44:41.018Z,25
2017-04-07T11:45:43.572Z,24.9
2017-04-07T11:46:42.844Z,24.9
2017-04-07T11:47:41.933Z,24.9
2017-04-07T11:48:41.558Z,24.9
2017-04-07T11:49:41.301Z,25
2017-04-07T11:50:42.468Z,25
2017-04-07T11:51:42.059Z,25.1
2017-04-07T11:52:41.656Z,25
2017-04-07T11:53:42.575Z,25.1
2017-04-07T11:54:41.929Z,25.1
2017-04-07T11:55:42.756Z,25
2017-04-07T11:56:41.661Z,25
2017-04-07T11:57:41.664Z,25
2017-04-07T11:58:42.748Z,25
2017-04-07T11:59:41.807Z,25
2017-04-07T12:00:43.306Z,25.1
2017-04-07T12:01:42.949Z,25.1
2017-04-07T12:02:42.043Z,25.1
2017-04-07T12:03:43.146Z,25.1
2017-04-07T12:04:43.261Z,25.1
2017-04-07T12:05:43.948Z,24.9
2017-04-07T12:06:43.751Z,24.8
2017-04-07T12:07:42.895Z,24.8
2017-04-07T12:08:43.956Z,24.5
2017-04-07T12:09:44.042Z,24.2
2017-04-07T12:10:44.725Z,23.9
2017-04-07T12:11:43.465Z,23.8
2017-04-07T12:12:44.308Z,23.7
2017-04-07T12:13:44.239Z,23.7
2017-04-07T12:14:42.485Z,23.8
2017-04-07T12:15:42.779Z,23.9
2017-04-07T12:16:42.695Z,23.5
2017-04-07T12:17:42.796Z,23.1
2017-04-07T12:18:45.014Z,23
2017-04-07T12:19:45.154Z,23
2017-04-07T12:20:44.512Z,22.7
2017-04-07T12:21:42.991Z,22.5
2017-04-07T12:22:43.901Z,22.5
2017-04-07T12:23:43.201Z,22.5
2017-04-07T12:24:44.136Z,22.6
2017-04-07T12:25:44.269Z,22.7
2017-04-07T12:26:45.119Z,22.7
2017-04-07T12:27:43.523Z,22.7
2017-04-07T12:28:44.540Z,22.7
2017-04-07T12:29:43.548Z,22.8
2017-04-07T12:30:44.164Z,22.6
2017-04-07T12:31:44.628Z,22.5
2017-04-07T12:32:44.685Z,22.3
2017-04-07T12:33:43.667Z,22.4
2017-04-07T12:34:43.822Z,22.5
2017-04-07T12:35:44.957Z,22.6
2017-04-07T12:36:45.287Z,22.7
2017-04-07T12:37:45.729Z,22.9
2017-04-07T12:38:44.052Z,23
2017-04-07T12:39:44.036Z,23.2
2017-04-07T12:40:45.928Z,23.3
2017-04-07T12:41:45.241Z,23.5
2017-04-07T12:42:44.903Z,23.6
2017-04-07T12:43:44.911Z,23.7
2017-04-07T12:44:44.256Z,23.8
2017-04-07T12:45:45.496Z,23.9
2017-04-07T12:46:45.413Z,24
2017-04-07T12:47:45.532Z,24.1
2017-04-07T12:48:44.493Z,24.2
2017-04-07T12:49:45.635Z,24.3
2017-04-07T12:50:44.619Z,24.3
2017-04-07T12:51:45.824Z,24.4
2017-04-07T12:52:44.837Z,24.4
2017-04-07T12:53:45.848Z,24.5
2017-04-07T12:54:45.839Z,24.5
2017-04-07T12:55:45.977Z,24.6
2017-04-07T12:56:44.951Z,24.6
2017-04-07T12:57:46.175Z,24.7
2017-04-07T12:58:46.070Z,24.7
2017-04-07T12:59:45.120Z,24.7
2017-04-07T13:00:48.505Z,24.7
2017-04-07T13:01:46.722Z,24.8
2017-04-07T13:02:46.316Z,24.8
2017-04-07T13:03:46.363Z,24.8
2017-04-07T13:04:46.536Z,24.8
2017-04-07T13:05:45.403Z,24.9
2017-04-07T13:06:45.453Z,24.8
2017-04-07T13:07:47.095Z,24.8
2017-04-07T13:08:46.755Z,24.7
2017-04-07T13:09:45.377Z,24.7
2017-04-07T13:10:46.193Z,24.6
2017-04-07T13:11:46.940Z,24.6
2017-04-07T13:12:47.413Z,24.5
2017-04-07T13:13:47.450Z,24.5
2017-04-07T13:14:45.741Z,24.5
2017-04-07T13:15:45.719Z,24.5
2017-04-07T13:16:46.849Z,24.5
2017-04-07T13:17:45.829Z,24.5
2017-04-07T13:18:45.891Z,24.5
2017-04-07T13:19:46.621Z,24.5
2017-04-07T13:20:47.035Z,24.4
2017-04-07T13:21:47.029Z,24.4
2017-04-07T13:22:47.067Z,24.3
2017-04-07T13:23:46.165Z,24.3
2017-04-07T13:24:47.074Z,24.3
2017-04-07T13:25:48.307Z,24.2